Terminal Aerodrome Forecast
Issued by NWS

Current Version | Previous Version | Text Only | Print | Product List | Glossary On
Versions: 1 2 3 4 5 6 7 8 9 10 11 12 13 14 15 16 17
000
FTUS44 KLIX 221725
TAFHDC
TAF
KHDC 221725Z 2218/2318 27011KT P6SM BKN015 OVC050
     FM222100 27010KT P6SM SCT015 OVC050
     FM230100 26005KT P6SM SCT025 BKN050 OVC100
      TEMPO 2310/2313 BKN015
     FM231400 28009KT P6SM BKN050 OVC100=

USA.gov is the U.S. government's official web portal to all federal, state and local government web resources and services.